L'Anse, MI

1:09 PM EST on February 07, 2016 (GMT -0500)
APRSWXNET | | Change Station
CLOSE
Current Station
Personal Weather Station
Location: L'Anse, MI
Elevation: 702 ft
Nearby Weather Stations

Elev 702 ft 46.84 °N, 88.38 °W | Updated 24 minutes ago

Snow
Snow
36 °F
Feels Like 36 °F
N
3
Wind Variable Wind from WSW
Gusts 6.0 mph

Today
High -- | Low -- °F
--% Chance of Precip.
Yesterday
High -- | Low -- °F
Precip. -- in
Pressure 29.53 in
Visibility 2.5 miles
Clouds Mostly Cloudy 600 ft
Overcast 2100 ft
Windchill 36 °F
Dew Point 33 °F
Humidity 88%
Rainfall in
Snow Depth Not available.
8:10 AM 6:05 PM
Waning Crescent, 1% visible
METAR KCMX 071753Z AUTO 15004KT 2 1/2SM -SN BR BKN006 OVC021 00/M02 A2949 RMK AO2 SNB10E27B35 CIG 004V008 SLP998 P0000 60008 T00001017 10000 21017 58006 TSNO
Pressure 29.53 in
Visibility 2.5 miles
Clouds Mostly Cloudy 600 ft
Overcast 2100 ft
Windchill 36 °F
Dew Point 33 °F
Humidity 88%
Rainfall in
Snow Depth Not available.
8:10 AM 6:05 PM
Waning Crescent, 1% visible
METAR KCMX 071753Z AUTO 15004KT 2 1/2SM -SN BR BKN006 OVC021 00/M02 A2949 RMK AO2 SNB10E27B35 CIG 004V008 SLP998 P0000 60008 T00001017 10000 21017 58006 TSNO

10-Day Weather Forecast

Almanac

Astronomy

Feb. 07, 2016 Rise Set
Actual Time
Civil Twilight
Nautical Twilight
Astronomical Twilight
Moon
Length of Visible Light
Length of Day
Tomorrow will be .
, % of the Moon is Illuminated

Today's Extremes

State Highs State Lows

Community

WunderPhotos

Upload Photos

1,891,263 photos uploaded!

WunderBlog® & News

Nearby

Air Quality

  Air Quality AQ Index Pollutant
Not available.

Snow Depth

Station Depth Elevation

Earthquake Activity

City Distance Mag. Time & Date
Minimum magnitude displayed is 2.5.

Coastal Water Temperatures

Place Temperature

Stations

Nearby Weather Stations

Station Location Temp. Windchill Dew Point Humidity Wind Precip. Elev Updated Type
                   

Watches & Warnings

There are currently no watches in effect.